sensor_id;sensor_type;location;lat;lon;timestamp;temperature;humidity
25450;DHT22;13371;52.080;5.624;2022-11-28T00:01:01;9.00;99.90
25450;DHT22;13371;52.080;5.624;2022-11-28T00:03:27;9.10;99.90
25450;DHT22;13371;52.080;5.624;2022-11-28T00:05:53;9.30;99.90
25450;DHT22;13371;52.080;5.624;2022-11-28T00:08:18;9.60;99.90
25450;DHT22;13371;52.080;5.624;2022-11-28T00:10:44;9.50;99.90
25450;DHT22;13371;52.080;5.624;2022-11-28T00:13:10;9.50;99.90
25450;DHT22;13371;52.080;5.624;2022-11-28T00:15:36;9.50;99.90
25450;DHT22;13371;52.080;5.624;2022-11-28T00:18:01;9.40;99.90
25450;DHT22;13371;52.080;5.624;2022-11-28T00:20:29;9.20;99.90
25450;DHT22;13371;52.080;5.624;2022-11-28T00:22:55;8.90;99.90
25450;DHT22;13371;52.080;5.624;2022-11-28T00:25:21;8.90;99.90
25450;DHT22;13371;52.080;5.624;2022-11-28T00:27:46;9.10;99.90
25450;DHT22;13371;52.080;5.624;2022-11-28T00:30:12;9.20;99.90
25450;DHT22;13371;52.080;5.624;2022-11-28T00:32:38;9.00;99.90
25450;DHT22;13371;52.080;5.624;2022-11-28T00:35:03;8.90;99.90
25450;DHT22;13371;52.080;5.624;2022-11-28T00:37:29;9.20;99.90
25450;DHT22;13371;52.080;5.624;2022-11-28T00:39:55;9.30;99.90
25450;DHT22;13371;52.080;5.624;2022-11-28T00:42:20;9.30;99.90
25450;DHT22;13371;52.080;5.624;2022-11-28T00:44:47;9.10;99.90
25450;DHT22;13371;52.080;5.624;2022-11-28T00:47:13;9.20;99.90
25450;DHT22;13371;52.080;5.624;2022-11-28T00:49:38;9.20;99.90
25450;DHT22;13371;52.080;5.624;2022-11-28T00:52:04;9.10;99.90
25450;DHT22;13371;52.080;5.624;2022-11-28T00:54:29;9.00;99.90
25450;DHT22;13371;52.080;5.624;2022-11-28T00:56:55;9.30;99.90
25450;DHT22;13371;52.080;5.624;2022-11-28T00:59:20;9.30;99.90
25450;DHT22;13371;52.080;5.624;2022-11-28T01:01:46;9.30;99.90
25450;DHT22;13371;52.080;5.624;2022-11-28T01:04:13;9.40;99.90
25450;DHT22;13371;52.080;5.624;2022-11-28T01:06:45;9.40;99.90
25450;DHT22;13371;52.080;5.624;2022-11-28T01:09:17;9.20;99.90
25450;DHT22;13371;52.080;5.624;2022-11-28T01:11:44;9.20;99.90
25450;DHT22;13371;52.080;5.624;2022-11-28T01:14:11;9.30;99.90
25450;DHT22;13371;52.080;5.624;2022-11-28T01:16:38;9.00;99.90
25450;DHT22;13371;52.080;5.624;2022-11-28T01:19:04;9.00;99.90
25450;DHT22;13371;52.080;5.624;2022-11-28T01:21:30;8.90;99.90
25450;DHT22;13371;52.080;5.624;2022-11-28T01:23:56;8.90;99.90
25450;DHT22;13371;52.080;5.624;2022-11-28T01:26:23;9.00;99.90
25450;DHT22;13371;52.080;5.624;2022-11-28T01:28:50;9.10;99.90
25450;DHT22;13371;52.080;5.624;2022-11-28T01:31:18;9.10;99.90
25450;DHT22;13371;52.080;5.624;2022-11-28T01:33:44;9.00;99.90
25450;DHT22;13371;52.080;5.624;2022-11-28T01:36:11;9.10;99.90
25450;DHT22;13371;52.080;5.624;2022-11-28T01:38:37;9.10;99.90
25450;DHT22;13371;52.080;5.624;2022-11-28T01:41:03;9.20;99.90
25450;DHT22;13371;52.080;5.624;2022-11-28T01:43:29;9.20;99.90
25450;DHT22;13371;52.080;5.624;2022-11-28T01:45:55;9.40;99.90
25450;DHT22;13371;52.080;5.624;2022-11-28T01:48:31;9.10;99.90
25450;DHT22;13371;52.080;5.624;2022-11-28T01:51:01;9.00;99.90
25450;DHT22;13371;52.080;5.624;2022-11-28T01:53:30;9.20;99.90
25450;DHT22;13371;52.080;5.624;2022-11-28T01:56:01;9.20;99.90
25450;DHT22;13371;52.080;5.624;2022-11-28T01:58:28;9.30;99.90
25450;DHT22;13371;52.080;5.624;2022-11-28T02:00:55;9.30;99.90
25450;DHT22;13371;52.080;5.624;2022-11-28T02:03:25;9.50;99.90
25450;DHT22;13371;52.080;5.624;2022-11-28T02:05:52;9.50;99.90
25450;DHT22;13371;52.080;5.624;2022-11-28T02:08:18;9.50;99.90
25450;DHT22;13371;52.080;5.624;2022-11-28T02:24:45;9.90;99.90
25450;DHT22;13371;52.080;5.624;2022-11-28T02:32:37;9.90;99.90
25450;DHT22;13371;52.080;5.624;2022-11-28T02:37:46;9.90;99.90
25450;DHT22;13371;52.080;5.624;2022-11-28T02:46:43;10.00;99.90
25450;DHT22;13371;52.080;5.624;2022-11-28T02:49:22;10.30;99.90
25450;DHT22;13371;52.080;5.624;2022-11-28T02:52:17;10.20;99.90
25450;DHT22;13371;52.080;5.624;2022-11-28T02:54:44;10.20;99.90
25450;DHT22;13371;52.080;5.624;2022-11-28T02:57:10;10.30;99.90
25450;DHT22;13371;52.080;5.624;2022-11-28T03:10:21;10.40;99.90
25450;DHT22;13371;52.080;5.624;2022-11-28T03:13:12;10.20;99.90
25450;DHT22;13371;52.080;5.624;2022-11-28T03:18:56;9.60;99.90
25450;DHT22;13371;52.080;5.624;2022-11-28T03:24:00;9.50;99.90
25450;DHT22;13371;52.080;5.624;2022-11-28T03:26:36;9.50;99.90
25450;DHT22;13371;52.080;5.624;2022-11-28T03:29:15;9.70;99.90
25450;DHT22;13371;52.080;5.624;2022-11-28T03:32:05;9.90;99.90
25450;DHT22;13371;52.080;5.624;2022-11-28T03:34:39;9.80;99.90
25450;DHT22;13371;52.080;5.624;2022-11-28T03:37:13;9.90;99.90
25450;DHT22;13371;52.080;5.624;2022-11-28T03:39:44;9.90;99.90
25450;DHT22;13371;52.080;5.624;2022-11-28T03:42:16;9.90;99.90
25450;DHT22;13371;52.080;5.624;2022-11-28T03:44:51;9.90;99.90
25450;DHT22;13371;52.080;5.624;2022-11-28T03:47:18;9.60;99.90
25450;DHT22;13371;52.080;5.624;2022-11-28T03:49:50;9.40;99.90
25450;DHT22;13371;52.080;5.624;2022-11-28T03:52:26;9.70;99.90
25450;DHT22;13371;52.080;5.624;2022-11-28T03:54:55;9.80;99.90
25450;DHT22;13371;52.080;5.624;2022-11-28T03:57:40;10.10;99.90
25450;DHT22;13371;52.080;5.624;2022-11-28T04:00:09;10.10;99.90
25450;DHT22;13371;52.080;5.624;2022-11-28T04:02:43;10.20;99.90
25450;DHT22;13371;52.080;5.624;2022-11-28T04:15:38;10.00;99.90
25450;DHT22;13371;52.080;5.624;2022-11-28T04:18:24;10.00;99.90
25450;DHT22;13371;52.080;5.624;2022-11-28T04:20:56;10.00;99.90
25450;DHT22;13371;52.080;5.624;2022-11-28T04:23:25;10.20;99.90
25450;DHT22;13371;52.080;5.624;2022-11-28T04:25:55;10.40;99.90
25450;DHT22;13371;52.080;5.624;2022-11-28T04:28:25;10.10;99.90
25450;DHT22;13371;52.080;5.624;2022-11-28T04:30:52;10.20;99.90
25450;DHT22;13371;52.080;5.624;2022-11-28T04:33:22;10.20;99.90
25450;DHT22;13371;52.080;5.624;2022-11-28T04:35:51;10.20;99.90
25450;DHT22;13371;52.080;5.624;2022-11-28T04:38:18;10.20;99.90
25450;DHT22;13371;52.080;5.624;2022-11-28T04:43:59;10.30;99.90
25450;DHT22;13371;52.080;5.624;2022-11-28T04:46:31;10.00;99.90
25450;DHT22;13371;52.080;5.624;2022-11-28T04:48:57;9.90;99.90
25450;DHT22;13371;52.080;5.624;2022-11-28T04:51:38;9.60;99.90
25450;DHT22;13371;52.080;5.624;2022-11-28T04:54:17;9.70;99.90
25450;DHT22;13371;52.080;5.624;2022-11-28T04:56:48;9.50;99.90
25450;DHT22;13371;52.080;5.624;2022-11-28T04:59:17;9.40;99.90
25450;DHT22;13371;52.080;5.624;2022-11-28T05:01:45;9.60;99.90
25450;DHT22;13371;52.080;5.624;2022-11-28T05:04:12;9.90;99.90
25450;DHT22;13371;52.080;5.624;2022-11-28T05:06:38;10.00;99.90
25450;DHT22;13371;52.080;5.624;2022-11-28T05:09:04;9.90;99.90
25450;DHT22;13371;52.080;5.624;2022-11-28T05:11:30;10.20;99.90
25450;DHT22;13371;52.080;5.624;2022-11-28T05:13:56;10.20;99.90
25450;DHT22;13371;52.080;5.624;2022-11-28T05:16:22;10.00;99.90
25450;DHT22;13371;52.080;5.624;2022-11-28T05:18:48;9.90;99.90
25450;DHT22;13371;52.080;5.624;2022-11-28T05:21:13;9.90;99.90
25450;DHT22;13371;52.080;5.624;2022-11-28T05:23:41;9.90;99.90
25450;DHT22;13371;52.080;5.624;2022-11-28T05:26:10;10.00;99.90
25450;DHT22;13371;52.080;5.624;2022-11-28T05:28:36;10.10;99.90
25450;DHT22;13371;52.080;5.624;2022-11-28T05:31:02;10.00;99.90
25450;DHT22;13371;52.080;5.624;2022-11-28T05:33:29;10.30;99.90
25450;DHT22;13371;52.080;5.624;2022-11-28T05:35:56;10.50;99.90
25450;DHT22;13371;52.080;5.624;2022-11-28T05:38:21;10.40;99.90
25450;DHT22;13371;52.080;5.624;2022-11-28T05:40:47;10.30;99.90
25450;DHT22;13371;52.080;5.624;2022-11-28T05:43:13;10.10;99.90
25450;DHT22;13371;52.080;5.624;2022-11-28T05:45:43;10.30;99.90
25450;DHT22;13371;52.080;5.624;2022-11-28T05:48:09;10.30;99.90
25450;DHT22;13371;52.080;5.624;2022-11-28T05:50:34;10.20;99.90
25450;DHT22;13371;52.080;5.624;2022-11-28T05:53:02;10.40;99.90
25450;DHT22;13371;52.080;5.624;2022-11-28T05:55:28;10.60;99.90
25450;DHT22;13371;52.080;5.624;2022-11-28T05:57:53;10.50;99.90
25450;DHT22;13371;52.080;5.624;2022-11-28T06:00:19;10.60;99.90
25450;DHT22;13371;52.080;5.624;2022-11-28T06:02:45;10.40;99.90
25450;DHT22;13371;52.080;5.624;2022-11-28T06:05:10;10.30;99.90
25450;DHT22;13371;52.080;5.624;2022-11-28T06:07:36;10.20;99.90
25450;DHT22;13371;52.080;5.624;2022-11-28T06:10:01;10.20;99.90
25450;DHT22;13371;52.080;5.624;2022-11-28T06:12:27;10.40;99.90
25450;DHT22;13371;52.080;5.624;2022-11-28T06:14:53;10.50;99.90
25450;DHT22;13371;52.080;5.624;2022-11-28T06:17:18;10.70;99.90
25450;DHT22;13371;52.080;5.624;2022-11-28T06:19:44;10.60;99.90
25450;DHT22;13371;52.080;5.624;2022-11-28T06:22:10;10.50;99.90
25450;DHT22;13371;52.080;5.624;2022-11-28T06:24:35;10.40;99.90
25450;DHT22;13371;52.080;5.624;2022-11-28T06:27:01;10.20;99.90
25450;DHT22;13371;52.080;5.624;2022-11-28T06:29:26;10.30;99.90
25450;DHT22;13371;52.080;5.624;2022-11-28T06:31:52;10.20;99.90
25450;DHT22;13371;52.080;5.624;2022-11-28T06:34:17;10.30;99.90
25450;DHT22;13371;52.080;5.624;2022-11-28T06:36:43;10.10;99.90
25450;DHT22;13371;52.080;5.624;2022-11-28T06:39:14;10.10;99.90
25450;DHT22;13371;52.080;5.624;2022-11-28T06:41:41;10.10;99.90
25450;DHT22;13371;52.080;5.624;2022-11-28T06:44:08;10.10;99.90
25450;DHT22;13371;52.080;5.624;2022-11-28T06:46:36;10.30;99.90
25450;DHT22;13371;52.080;5.624;2022-11-28T06:49:02;10.20;99.90
25450;DHT22;13371;52.080;5.624;2022-11-28T06:51:28;10.00;99.90
25450;DHT22;13371;52.080;5.624;2022-11-28T06:53:54;10.20;99.90
25450;DHT22;13371;52.080;5.624;2022-11-28T06:56:20;10.10;99.90
25450;DHT22;13371;52.080;5.624;2022-11-28T06:58:46;10.50;99.90
25450;DHT22;13371;52.080;5.624;2022-11-28T07:01:15;10.50;99.90
25450;DHT22;13371;52.080;5.624;2022-11-28T07:03:42;10.30;99.90
25450;DHT22;13371;52.080;5.624;2022-11-28T07:06:09;10.40;99.90
25450;DHT22;13371;52.080;5.624;2022-11-28T07:08:35;10.40;99.90
25450;DHT22;13371;52.080;5.624;2022-11-28T07:13:44;10.60;99.90
25450;DHT22;13371;52.080;5.624;2022-11-28T07:16:15;10.70;99.90
25450;DHT22;13371;52.080;5.624;2022-11-28T07:18:41;10.60;99.90
25450;DHT22;13371;52.080;5.624;2022-11-28T07:21:07;10.60;99.90
25450;DHT22;13371;52.080;5.624;2022-11-28T07:23:33;10.70;99.90
25450;DHT22;13371;52.080;5.624;2022-11-28T07:26:00;10.80;99.90
25450;DHT22;13371;52.080;5.624;2022-11-28T07:28:27;10.90;99.90
25450;DHT22;13371;52.080;5.624;2022-11-28T07:31:08;10.60;99.90
25450;DHT22;13371;52.080;5.624;2022-11-28T07:33:36;10.50;99.90
25450;DHT22;13371;52.080;5.624;2022-11-28T07:36:03;10.80;99.90
25450;DHT22;13371;52.080;5.624;2022-11-28T07:38:29;10.80;99.90
25450;DHT22;13371;52.080;5.624;2022-11-28T07:41:08;11.00;99.90
25450;DHT22;13371;52.080;5.624;2022-11-28T07:43:34;10.80;99.90
25450;DHT22;13371;52.080;5.624;2022-11-28T07:46:04;10.90;99.90
25450;DHT22;13371;52.080;5.624;2022-11-28T07:48:30;11.10;99.90
25450;DHT22;13371;52.080;5.624;2022-11-28T07:50:55;11.00;99.90
25450;DHT22;13371;52.080;5.624;2022-11-28T07:53:21;10.90;99.90
25450;DHT22;13371;52.080;5.624;2022-11-28T07:55:46;10.70;99.90
25450;DHT22;13371;52.080;5.624;2022-11-28T07:58:12;10.80;99.90
25450;DHT22;13371;52.080;5.624;2022-11-28T08:00:38;10.60;99.90
25450;DHT22;13371;52.080;5.624;2022-11-28T08:03:03;10.90;99.90
25450;DHT22;13371;52.080;5.624;2022-11-28T08:05:29;11.00;99.90
25450;DHT22;13371;52.080;5.624;2022-11-28T08:07:54;11.10;99.90
25450;DHT22;13371;52.080;5.624;2022-11-28T08:10:20;11.30;99.90
25450;DHT22;13371;52.080;5.624;2022-11-28T08:12:46;11.40;99.90
25450;DHT22;13371;52.080;5.624;2022-11-28T08:15:11;11.00;99.90
25450;DHT22;13371;52.080;5.624;2022-11-28T08:17:37;11.30;99.90
25450;DHT22;13371;52.080;5.624;2022-11-28T08:20:03;11.10;99.90
25450;DHT22;13371;52.080;5.624;2022-11-28T08:22:29;11.00;99.90
25450;DHT22;13371;52.080;5.624;2022-11-28T08:24:54;11.00;99.90
25450;DHT22;13371;52.080;5.624;2022-11-28T08:27:20;11.10;99.90
25450;DHT22;13371;52.080;5.624;2022-11-28T08:29:45;11.20;99.90
25450;DHT22;13371;52.080;5.624;2022-11-28T08:32:11;11.00;99.90
25450;DHT22;13371;52.080;5.624;2022-11-28T08:34:36;11.20;99.90
25450;DHT22;13371;52.080;5.624;2022-11-28T08:37:02;11.20;99.90
25450;DHT22;13371;52.080;5.624;2022-11-28T08:39:28;11.40;99.90
25450;DHT22;13371;52.080;5.624;2022-11-28T08:41:55;11.40;99.90
25450;DHT22;13371;52.080;5.624;2022-11-28T08:44:22;11.30;99.90
25450;DHT22;13371;52.080;5.624;2022-11-28T08:46:47;11.20;99.90
25450;DHT22;13371;52.080;5.624;2022-11-28T08:49:13;11.20;99.90
25450;DHT22;13371;52.080;5.624;2022-11-28T08:51:39;10.80;99.90
25450;DHT22;13371;52.080;5.624;2022-11-28T08:54:04;10.70;99.90
25450;DHT22;13371;52.080;5.624;2022-11-28T08:56:30;10.80;99.90
25450;DHT22;13371;52.080;5.624;2022-11-28T08:58:56;10.60;99.90
25450;DHT22;13371;52.080;5.624;2022-11-28T09:01:25;11.00;99.90
25450;DHT22;13371;52.080;5.624;2022-11-28T09:03:52;11.20;99.90
25450;DHT22;13371;52.080;5.624;2022-11-28T09:06:18;11.20;99.90
25450;DHT22;13371;52.080;5.624;2022-11-28T09:08:45;11.20;99.90
25450;DHT22;13371;52.080;5.624;2022-11-28T09:11:14;11.20;99.90
25450;DHT22;13371;52.080;5.624;2022-11-28T09:13:40;11.20;99.90
25450;DHT22;13371;52.080;5.624;2022-11-28T09:16:06;11.10;99.90
25450;DHT22;13371;52.080;5.624;2022-11-28T09:18:32;10.80;99.90
25450;DHT22;13371;52.080;5.624;2022-11-28T09:20:59;10.70;99.90
25450;DHT22;13371;52.080;5.624;2022-11-28T09:23:26;10.90;99.90
25450;DHT22;13371;52.080;5.624;2022-11-28T09:25:51;11.00;99.90
25450;DHT22;13371;52.080;5.624;2022-11-28T09:28:17;11.30;99.90
25450;DHT22;13371;52.080;5.624;2022-11-28T09:30:43;11.40;99.90
25450;DHT22;13371;52.080;5.624;2022-11-28T09:33:08;11.00;99.90
25450;DHT22;13371;52.080;5.624;2022-11-28T09:35:37;11.00;99.90
25450;DHT22;13371;52.080;5.624;2022-11-28T09:38:03;11.20;99.90
25450;DHT22;13371;52.080;5.624;2022-11-28T09:40:41;11.20;99.90
25450;DHT22;13371;52.080;5.624;2022-11-28T09:43:32;11.20;99.90
25450;DHT22;13371;52.080;5.624;2022-11-28T09:46:03;11.20;99.90
25450;DHT22;13371;52.080;5.624;2022-11-28T09:48:37;11.10;99.90
25450;DHT22;13371;52.080;5.624;2022-11-28T09:51:28;11.20;99.90
25450;DHT22;13371;52.080;5.624;2022-11-28T09:54:01;11.30;99.90
25450;DHT22;13371;52.080;5.624;2022-11-28T09:56:30;11.30;99.90
25450;DHT22;13371;52.080;5.624;2022-11-28T09:58:57;11.30;99.90
25450;DHT22;13371;52.080;5.624;2022-11-28T10:01:33;11.50;99.90
25450;DHT22;13371;52.080;5.624;2022-11-28T10:04:15;11.40;99.90
25450;DHT22;13371;52.080;5.624;2022-11-28T10:06:59;11.30;99.90
25450;DHT22;13371;52.080;5.624;2022-11-28T10:17:38;11.40;99.90
25450;DHT22;13371;52.080;5.624;2022-11-28T10:20:21;11.50;99.90
25450;DHT22;13371;52.080;5.624;2022-11-28T10:25:35;11.50;99.90
25450;DHT22;13371;52.080;5.624;2022-11-28T10:28:06;11.60;99.90
25450;DHT22;13371;52.080;5.624;2022-11-28T10:30:36;11.60;99.90
25450;DHT22;13371;52.080;5.624;2022-11-28T10:33:19;11.50;99.90
25450;DHT22;13371;52.080;5.624;2022-11-28T10:35:57;11.60;99.90
25450;DHT22;13371;52.080;5.624;2022-11-28T10:38:25;11.70;99.90
25450;DHT22;13371;52.080;5.624;2022-11-28T10:43:41;11.30;99.90
25450;DHT22;13371;52.080;5.624;2022-11-28T10:46:14;11.10;99.90
25450;DHT22;13371;52.080;5.624;2022-11-28T10:48:56;11.20;99.90
25450;DHT22;13371;52.080;5.624;2022-11-28T10:51:37;11.00;99.90
25450;DHT22;13371;52.080;5.624;2022-11-28T10:54:25;11.00;99.90
25450;DHT22;13371;52.080;5.624;2022-11-28T10:57:16;11.10;99.90
25450;DHT22;13371;52.080;5.624;2022-11-28T11:02:45;11.50;99.90
25450;DHT22;13371;52.080;5.624;2022-11-28T11:05:15;11.50;99.90
25450;DHT22;13371;52.080;5.624;2022-11-28T11:08:26;11.30;99.90
25450;DHT22;13371;52.080;5.624;2022-11-28T11:13:27;11.70;99.90
25450;DHT22;13371;52.080;5.624;2022-11-28T11:16:05;11.80;99.90
25450;DHT22;13371;52.080;5.624;2022-11-28T11:18:49;11.40;99.90
25450;DHT22;13371;52.080;5.624;2022-11-28T11:23:41;11.80;99.90
25450;DHT22;13371;52.080;5.624;2022-11-28T11:26:07;11.90;99.90
25450;DHT22;13371;52.080;5.624;2022-11-28T11:28:42;12.00;99.90
25450;DHT22;13371;52.080;5.624;2022-11-28T11:31:16;12.10;99.90
25450;DHT22;13371;52.080;5.624;2022-11-28T11:33:42;12.30;99.90
25450;DHT22;13371;52.080;5.624;2022-11-28T11:36:29;12.00;99.90
25450;DHT22;13371;52.080;5.624;2022-11-28T11:41:39;11.80;99.90
25450;DHT22;13371;52.080;5.624;2022-11-28T11:49:36;12.30;99.90
25450;DHT22;13371;52.080;5.624;2022-11-28T11:52:26;12.10;99.90
25450;DHT22;13371;52.080;5.624;2022-11-28T11:57:36;11.80;99.90
25450;DHT22;13371;52.080;5.624;2022-11-28T12:00:17;11.90;99.90
25450;DHT22;13371;52.080;5.624;2022-11-28T12:02:58;12.00;99.90
25450;DHT22;13371;52.080;5.624;2022-11-28T12:05:29;12.40;99.90
25450;DHT22;13371;52.080;5.624;2022-11-28T12:08:10;12.60;99.90
25450;DHT22;13371;52.080;5.624;2022-11-28T12:11:23;12.70;99.90
25450;DHT22;13371;52.080;5.624;2022-11-28T12:13:31;12.70;99.90
25450;DHT22;13371;52.080;5.624;2022-11-28T12:15:58;12.80;99.90
25450;DHT22;13371;52.080;5.624;2022-11-28T12:22:01;12.60;99.90
25450;DHT22;13371;52.080;5.624;2022-11-28T12:35:39;12.50;99.90
25450;DHT22;13371;52.080;5.624;2022-11-28T12:40:48;12.90;99.90
25450;DHT22;13371;52.080;5.624;2022-11-28T12:51:10;12.60;99.90
25450;DHT22;13371;52.080;5.624;2022-11-28T12:59:40;12.30;99.90
25450;DHT22;13371;52.080;5.624;2022-11-28T13:13:23;13.10;99.90
25450;DHT22;13371;52.080;5.624;2022-11-28T13:18:00;13.20;99.90
25450;DHT22;13371;52.080;5.624;2022-11-28T13:21:13;13.50;99.90
25450;DHT22;13371;52.080;5.624;2022-11-28T13:23:55;13.60;99.90
25450;DHT22;13371;52.080;5.624;2022-11-28T13:26:50;13.40;99.90
25450;DHT22;13371;52.080;5.624;2022-11-28T13:29:35;13.40;99.90
25450;DHT22;13371;52.080;5.624;2022-11-28T13:34:47;13.60;99.90
25450;DHT22;13371;52.080;5.624;2022-11-28T13:37:21;13.10;99.90
25450;DHT22;13371;52.080;5.624;2022-11-28T13:45:30;12.90;99.90
25450;DHT22;13371;52.080;5.624;2022-11-28T13:47:56;13.40;99.90
25450;DHT22;13371;52.080;5.624;2022-11-28T13:50:39;13.60;99.90
25450;DHT22;13371;52.080;5.624;2022-11-28T13:58:30;13.80;99.90
25450;DHT22;13371;52.080;5.624;2022-11-28T14:01:15;13.80;99.90
25450;DHT22;13371;52.080;5.624;2022-11-28T14:06:19;13.70;99.90
25450;DHT22;13371;52.080;5.624;2022-11-28T14:08:46;13.70;99.90
25450;DHT22;13371;52.080;5.624;2022-11-28T14:11:34;13.80;99.90
25450;DHT22;13371;52.080;5.624;2022-11-28T14:14:38;14.00;99.90
25450;DHT22;13371;52.080;5.624;2022-11-28T14:17:30;13.90;99.90
25450;DHT22;13371;52.080;5.624;2022-11-28T14:25:43;13.70;99.90
25450;DHT22;13371;52.080;5.624;2022-11-28T14:28:28;13.80;99.90
25450;DHT22;13371;52.080;5.624;2022-11-28T14:33:46;14.00;99.90
25450;DHT22;13371;52.080;5.624;2022-11-28T14:36:28;14.00;99.90
25450;DHT22;13371;52.080;5.624;2022-11-28T14:39:02;14.00;99.90
25450;DHT22;13371;52.080;5.624;2022-11-28T14:41:27;14.10;99.90
25450;DHT22;13371;52.080;5.624;2022-11-28T14:43:53;14.20;99.90
25450;DHT22;13371;52.080;5.624;2022-11-28T14:54:40;14.40;99.90
25450;DHT22;13371;52.080;5.624;2022-11-28T14:57:14;14.40;99.90
25450;DHT22;13371;52.080;5.624;2022-11-28T14:59:42;14.40;99.90
25450;DHT22;13371;52.080;5.624;2022-11-28T15:13:03;14.40;99.90
25450;DHT22;13371;52.080;5.624;2022-11-28T15:15:31;14.40;99.90
25450;DHT22;13371;52.080;5.624;2022-11-28T15:17:58;14.40;99.90
25450;DHT22;13371;52.080;5.624;2022-11-28T15:20:37;14.30;99.90
25450;DHT22;13371;52.080;5.624;2022-11-28T15:23:38;14.30;99.90
25450;DHT22;13371;52.080;5.624;2022-11-28T15:26:04;14.40;99.90
25450;DHT22;13371;52.080;5.624;2022-11-28T15:28:32;14.40;99.90
25450;DHT22;13371;52.080;5.624;2022-11-28T15:31:01;14.50;99.90
25450;DHT22;13371;52.080;5.624;2022-11-28T15:33:28;14.50;99.90
25450;DHT22;13371;52.080;5.624;2022-11-28T15:36:06;14.50;99.90
25450;DHT22;13371;52.080;5.624;2022-11-28T15:38:40;14.50;99.90
25450;DHT22;13371;52.080;5.624;2022-11-28T15:41:06;14.50;99.90
25450;DHT22;13371;52.080;5.624;2022-11-28T15:43:32;14.50;99.90
25450;DHT22;13371;52.080;5.624;2022-11-28T15:46:01;14.40;99.90
25450;DHT22;13371;52.080;5.624;2022-11-28T15:50:58;14.40;99.90
25450;DHT22;13371;52.080;5.624;2022-11-28T15:53:24;14.50;99.90
25450;DHT22;13371;52.080;5.624;2022-11-28T15:56:13;14.40;99.90
25450;DHT22;13371;52.080;5.624;2022-11-28T15:58:41;14.40;99.90
25450;DHT22;13371;52.080;5.624;2022-11-28T16:01:22;14.50;99.90
25450;DHT22;13371;52.080;5.624;2022-11-28T16:06:22;14.30;99.90
25450;DHT22;13371;52.080;5.624;2022-11-28T16:11:48;14.30;99.90
25450;DHT22;13371;52.080;5.624;2022-11-28T16:14:32;13.90;99.90
25450;DHT22;13371;52.080;5.624;2022-11-28T16:17:01;13.80;99.90
25450;DHT22;13371;52.080;5.624;2022-11-28T16:19:35;13.70;99.90
25450;DHT22;13371;52.080;5.624;2022-11-28T16:22:11;13.80;99.90
25450;DHT22;13371;52.080;5.624;2022-11-28T16:27:33;13.70;99.90
25450;DHT22;13371;52.080;5.624;2022-11-28T16:30:00;13.80;99.90
25450;DHT22;13371;52.080;5.624;2022-11-28T16:32:37;13.80;99.90
25450;DHT22;13371;52.080;5.624;2022-11-28T16:35:05;13.90;99.90
25450;DHT22;13371;52.080;5.624;2022-11-28T16:37:32;13.90;99.90
25450;DHT22;13371;52.080;5.624;2022-11-28T16:42:24;14.00;99.90
25450;DHT22;13371;52.080;5.624;2022-11-28T16:44:50;14.10;99.90
25450;DHT22;13371;52.080;5.624;2022-11-28T16:47:26;14.20;99.90
25450;DHT22;13371;52.080;5.624;2022-11-28T16:52:41;14.00;99.90
25450;DHT22;13371;52.080;5.624;2022-11-28T16:55:38;13.90;99.90
25450;DHT22;13371;52.080;5.624;2022-11-28T16:58:18;13.90;99.90
25450;DHT22;13371;52.080;5.624;2022-11-28T17:01:04;14.10;99.90
25450;DHT22;13371;52.080;5.624;2022-11-28T17:03:51;14.10;99.90
25450;DHT22;13371;52.080;5.624;2022-11-28T17:06:29;14.20;99.90
25450;DHT22;13371;52.080;5.624;2022-11-28T17:08:59;14.20;99.90
25450;DHT22;13371;52.080;5.624;2022-11-28T17:11:27;14.20;99.90
25450;DHT22;13371;52.080;5.624;2022-11-28T17:13:53;14.20;99.90
25450;DHT22;13371;52.080;5.624;2022-11-28T17:16:24;14.30;99.90
25450;DHT22;13371;52.080;5.624;2022-11-28T17:18:50;14.30;99.90
25450;DHT22;13371;52.080;5.624;2022-11-28T17:21:22;14.30;99.90
25450;DHT22;13371;52.080;5.624;2022-11-28T17:23:51;14.40;99.90
25450;DHT22;13371;52.080;5.624;2022-11-28T17:26:16;14.30;99.90
25450;DHT22;13371;52.080;5.624;2022-11-28T17:28:42;14.30;99.90
25450;DHT22;13371;52.080;5.624;2022-11-28T17:31:11;14.30;99.90
25450;DHT22;13371;52.080;5.624;2022-11-28T17:33:37;14.30;99.90
25450;DHT22;13371;52.080;5.624;2022-11-28T17:36:03;14.30;99.90
25450;DHT22;13371;52.080;5.624;2022-11-28T17:38:29;14.30;99.90
25450;DHT22;13371;52.080;5.624;2022-11-28T17:40:58;14.40;99.90
25450;DHT22;13371;52.080;5.624;2022-11-28T17:43:24;14.40;99.90
25450;DHT22;13371;52.080;5.624;2022-11-28T17:45:51;14.40;99.90
25450;DHT22;13371;52.080;5.624;2022-11-28T17:48:17;14.40;99.90
25450;DHT22;13371;52.080;5.624;2022-11-28T17:50:45;14.40;99.90
25450;DHT22;13371;52.080;5.624;2022-11-28T17:53:17;14.40;99.90
25450;DHT22;13371;52.080;5.624;2022-11-28T17:55:45;14.50;99.90
25450;DHT22;13371;52.080;5.624;2022-11-28T17:58:22;14.50;99.90
25450;DHT22;13371;52.080;5.624;2022-11-28T18:00:48;14.50;99.90
25450;DHT22;13371;52.080;5.624;2022-11-28T18:03:15;14.50;99.90
25450;DHT22;13371;52.080;5.624;2022-11-28T18:05:45;14.50;99.90
25450;DHT22;13371;52.080;5.624;2022-11-28T18:08:16;14.50;99.90
25450;DHT22;13371;52.080;5.624;2022-11-28T18:10:42;14.50;99.90
25450;DHT22;13371;52.080;5.624;2022-11-28T18:13:09;14.50;99.90
25450;DHT22;13371;52.080;5.624;2022-11-28T18:15:35;14.50;99.90
25450;DHT22;13371;52.080;5.624;2022-11-28T18:18:02;14.50;99.90
25450;DHT22;13371;52.080;5.624;2022-11-28T18:20:29;14.40;99.90
25450;DHT22;13371;52.080;5.624;2022-11-28T18:22:57;14.50;99.90
25450;DHT22;13371;52.080;5.624;2022-11-28T18:25:23;14.50;99.80
25450;DHT22;13371;52.080;5.624;2022-11-28T18:27:50;14.50;99.80
25450;DHT22;13371;52.080;5.624;2022-11-28T18:30:15;14.40;99.70
25450;DHT22;13371;52.080;5.624;2022-11-28T18:32:41;14.40;99.70
25450;DHT22;13371;52.080;5.624;2022-11-28T18:35:07;14.40;99.60
25450;DHT22;13371;52.080;5.624;2022-11-28T18:37:33;14.40;99.50
25450;DHT22;13371;52.080;5.624;2022-11-28T18:39:59;14.30;99.50
25450;DHT22;13371;52.080;5.624;2022-11-28T18:42:25;14.30;99.50
25450;DHT22;13371;52.080;5.624;2022-11-28T18:44:51;14.30;99.50
25450;DHT22;13371;52.080;5.624;2022-11-28T18:47:16;14.20;99.40
25450;DHT22;13371;52.080;5.624;2022-11-28T18:49:42;14.20;99.40
25450;DHT22;13371;52.080;5.624;2022-11-28T18:52:07;14.20;99.40
25450;DHT22;13371;52.080;5.624;2022-11-28T18:54:33;14.10;99.30
25450;DHT22;13371;52.080;5.624;2022-11-28T18:56:59;14.10;99.30
25450;DHT22;13371;52.080;5.624;2022-11-28T18:59:25;13.90;99.40
25450;DHT22;13371;52.080;5.624;2022-11-28T19:01:50;13.80;99.70
25450;DHT22;13371;52.080;5.624;2022-11-28T19:04:16;13.90;99.50
25450;DHT22;13371;52.080;5.624;2022-11-28T19:06:42;13.80;99.50
25450;DHT22;13371;52.080;5.624;2022-11-28T19:09:12;13.80;99.50
25450;DHT22;13371;52.080;5.624;2022-11-28T19:11:39;13.70;99.70